Time;durP1;ratioP1;P1;durP2;ratioP2;P2;SDS_P1;SDS_P2;PMS_P1;PMS_P2;Temp;Humidity;BMP_temperature;BMP_pressure;BME280_temperature;BME280_humidity;BME280_pressure;Samples;Min_cycle;Max_cycle;Signal;HPM_P1;HPM_P2
2022/12/13 00:01:18;;;;;;;73.40;27.63;;;-2.40;99.90;;;;;;5054509;28;20476;-77
2022/12/13 00:03:44;;;;;;;69.30;30.15;;;-2.50;99.90;;;;;;5054168;28;20060;-77
2022/12/13 00:06:10;;;;;;;62.13;27.52;;;-2.50;99.90;;;;;;5054624;28;20070;-77
2022/12/13 00:08:37;;;;;;;62.88;26.08;;;-2.60;99.90;;;;;;5054582;28;20044;-77
2022/12/13 00:11:06;;;;;;;61.42;26.60;;;-2.60;99.90;;;;;;5054271;28;20407;-77
2022/12/13 00:13:32;;;;;;;58.03;25.85;;;-2.60;99.90;;;;;;5054217;28;20508;-77
2022/12/13 00:16:00;;;;;;;62.90;27.15;;;-2.60;99.90;;;;;;5054251;28;20048;-77
2022/12/13 00:18:26;;;;;;;57.95;26.08;;;-2.50;99.90;;;;;;5054026;28;20037;-77
2022/12/13 00:20:55;;;;;;;67.45;28.90;;;-2.60;99.90;;;;;;5054299;28;20088;-77
2022/12/13 00:23:21;;;;;;;60.25;25.85;;;-2.60;99.90;;;;;;5053733;28;20094;-77
2022/12/13 00:25:47;;;;;;;68.40;29.92;;;-2.50;99.90;;;;;;5054021;28;20049;-77
2022/12/13 00:28:14;;;;;;;61.97;27.63;;;-2.50;99.90;;;;;;5053668;28;20045;-77
2022/12/13 00:30:39;;;;;;;59.17;26.80;;;-2.50;99.90;;;;;;5053572;28;20045;-77
2022/12/13 00:33:05;;;;;;;59.80;27.35;;;-2.60;99.90;;;;;;5054138;28;20052;-76
2022/12/13 00:35:32;;;;;;;60.75;26.90;;;-2.60;99.90;;;;;;5053744;28;20080;-77
2022/12/13 00:37:58;;;;;;;60.25;26.27;;;-2.60;99.90;;;;;;5053934;28;20536;-77
2022/12/13 00:40:24;;;;;;;54.60;25.80;;;-2.60;99.90;;;;;;5054886;28;20120;-77
2022/12/13 00:42:49;;;;;;;61.78;26.65;;;-2.60;99.90;;;;;;5053343;28;20076;-77
2022/12/13 00:45:15;;;;;;;59.17;26.52;;;-2.60;99.90;;;;;;5053688;28;20083;-77
2022/12/13 00:47:41;;;;;;;63.95;27.20;;;-2.60;99.90;;;;;;5053441;28;20077;-77
2022/12/13 00:50:07;;;;;;;62.35;27.40;;;-2.70;99.90;;;;;;5053169;28;20136;-77
2022/12/13 00:52:33;;;;;;;59.67;27.20;;;-2.60;99.90;;;;;;5053435;28;20056;-77
2022/12/13 00:54:59;;;;;;;60.00;25.50;;;-2.80;99.90;;;;;;5054040;28;20053;-76
2022/12/13 00:57:26;;;;;;;61.13;26.38;;;-2.80;99.90;;;;;;5053199;28;20045;-77
2022/12/13 00:59:51;;;;;;;57.63;24.45;;;-2.70;99.90;;;;;;5053191;28;20060;-77
2022/12/13 01:02:17;;;;;;;60.72;27.70;;;-2.70;99.90;;;;;;5053167;28;20045;-77
2022/12/13 01:04:43;;;;;;;52.15;24.95;;;-2.80;99.90;;;;;;5053123;28;20053;-76
2022/12/13 01:07:08;;;;;;;57.58;25.75;;;-2.70;99.90;;;;;;5053428;28;20037;-77
2022/12/13 01:09:34;;;;;;;61.45;27.83;;;-2.60;99.90;;;;;;5053052;28;20430;-77
2022/12/13 01:12:05;;;;;;;63.38;28.42;;;-2.60;99.90;;;;;;5053173;28;20083;-77
2022/12/13 01:14:33;;;;;;;59.75;26.35;;;-2.70;99.90;;;;;;5053180;28;20106;-77
2022/12/13 01:16:59;;;;;;;59.72;26.35;;;-2.70;99.90;;;;;;5052891;28;20491;-77
2022/12/13 01:19:26;;;;;;;60.75;26.73;;;-2.80;99.90;;;;;;5053210;28;20041;-77
2022/12/13 01:22:00;;;;;;;54.03;26.65;;;-2.60;99.90;;;;;;5052644;28;20045;-77
2022/12/13 01:24:27;;;;;;;59.42;25.63;;;-2.70;99.90;;;;;;5052750;28;20055;-77
2022/12/13 01:26:53;;;;;;;61.88;25.98;;;-2.60;99.90;;;;;;5052666;28;20438;-77
2022/12/13 01:29:20;;;;;;;55.47;25.63;;;-2.70;99.90;;;;;;5052927;28;20132;-77
2022/12/13 01:31:47;;;;;;;58.30;27.92;;;-2.70;99.90;;;;;;5052637;28;20410;-77
2022/12/13 01:34:15;;;;;;;59.17;27.13;;;-2.80;99.90;;;;;;5052706;28;20053;-77
2022/12/13 01:36:43;;;;;;;56.85;25.73;;;-2.70;99.90;;;;;;5052329;28;20053;-77
2022/12/13 01:39:11;;;;;;;57.97;26.58;;;-2.70;99.90;;;;;;5052422;28;20044;-77
2022/12/13 01:41:37;;;;;;;57.60;26.55;;;-2.60;99.90;;;;;;5052601;28;20116;-77
2022/12/13 01:44:22;;;;;;;55.80;26.60;;;-2.70;99.90;;;;;;5052330;28;20049;-76
2022/12/13 01:46:48;;;;;;;56.92;26.33;;;-2.70;99.90;;;;;;5052598;28;20053;-76
2022/12/13 01:49:17;;;;;;;54.05;25.75;;;-2.60;99.90;;;;;;5053684;28;20045;-76
2022/12/13 01:51:51;;;;;;;56.22;24.73;;;-2.70;99.90;;;;;;5052181;28;20484;-77
2022/12/13 01:54:23;;;;;;;54.65;23.92;;;-2.70;99.90;;;;;;5052339;28;20120;-76
2022/12/13 01:56:53;;;;;;;57.35;25.63;;;-2.70;99.90;;;;;;5052841;28;20049;-76
2022/12/13 01:59:20;;;;;;;56.30;24.60;;;-2.70;99.90;;;;;;5052650;28;20049;-76
2022/12/13 02:01:47;;;;;;;54.60;24.27;;;-2.80;99.90;;;;;;5053554;28;20037;-76
2022/12/13 02:04:15;;;;;;;52.58;26.08;;;-2.90;99.90;;;;;;5052406;28;20433;-76
2022/12/13 02:06:44;;;;;;;53.20;25.00;;;-2.80;99.90;;;;;;5051660;28;20175;-76
2022/12/13 02:09:09;;;;;;;60.80;27.10;;;-2.90;99.90;;;;;;5053148;28;20124;-76
2022/12/13 02:11:39;;;;;;;53.88;26.23;;;-3.00;99.90;;;;;;5052169;28;20163;-77
2022/12/13 02:14:05;;;;;;;54.95;26.02;;;-2.80;99.90;;;;;;5052129;28;20095;-76
2022/12/13 02:16:43;;;;;;;55.08;26.25;;;-2.90;99.90;;;;;;5051933;28;20110;-76
2022/12/13 02:19:17;;;;;;;49.88;25.25;;;-2.90;99.90;;;;;;5052301;28;20048;-76
2022/12/13 02:22:22;;;;;;;60.33;26.60;;;-3.00;99.90;;;;;;5052318;28;20052;-76
2022/12/13 02:25:15;;;;;;;48.55;24.65;;;-2.90;99.90;;;;;;5051823;28;20060;-76
2022/12/13 02:27:40;;;;;;;54.85;25.52;;;-3.00;99.90;;;;;;5052246;28;20080;-76
2022/12/13 02:30:23;;;;;;;53.22;24.25;;;-2.90;99.90;;;;;;5051782;28;20456;-76
2022/12/13 02:32:49;;;;;;;54.50;24.73;;;-2.90;99.90;;;;;;5052274;28;20049;-76
2022/12/13 02:35:41;;;;;;;55.17;24.80;;;-3.00;99.90;;;;;;5052329;28;20053;-76
2022/12/13 02:38:25;;;;;;;51.42;24.75;;;-2.90;99.90;;;;;;5049306;28;20496;-76
2022/12/13 02:41:15;;;;;;;54.38;26.15;;;-3.00;99.90;;;;;;5052022;28;20064;-76
2022/12/13 02:44:16;;;;;;;51.88;24.50;;;-3.00;99.90;;;;;;5052114;28;20041;-76
2022/12/13 02:46:50;;;;;;;54.47;24.85;;;-2.80;99.90;;;;;;5045027;28;20053;-76
2022/12/13 02:49:16;;;;;;;54.40;25.08;;;-2.90;99.90;;;;;;5052196;28;20044;-76
2022/12/13 02:51:43;;;;;;;52.60;24.20;;;-3.00;99.90;;;;;;5051743;28;20053;-76
2022/12/13 02:54:09;;;;;;;54.80;25.25;;;-3.00;99.90;;;;;;5051915;28;20051;-76
2022/12/13 02:56:35;;;;;;;50.78;24.63;;;-2.90;99.90;;;;;;5051562;28;20037;-76
2022/12/13 02:59:04;;;;;;;49.70;23.30;;;-3.00;99.90;;;;;;5051963;28;20075;-76
2022/12/13 03:01:35;;;;;;;53.58;24.02;;;-2.90;99.90;;;;;;5052044;28;20528;-76
2022/12/13 03:04:10;;;;;;;59.78;26.23;;;-3.00;99.90;;;;;;5052054;28;20075;-76
2022/12/13 03:06:50;;;;;;;50.78;23.17;;;-3.00;99.90;;;;;;5051585;28;20087;-76
2022/12/13 03:09:42;;;;;;;57.90;24.08;;;-3.00;99.90;;;;;;5051847;28;20103;-76
2022/12/13 03:15:13;;;;;;;55.85;23.85;;;-3.00;99.90;;;;;;5051557;28;20132;-76
2022/12/13 03:18:02;;;;;;;49.65;21.98;;;-2.90;99.90;;;;;;5051843;28;20044;-76
2022/12/13 03:20:29;;;;;;;56.45;24.60;;;-2.90;99.90;;;;;;5054874;28;20060;-76
2022/12/13 03:22:55;;;;;;;50.67;23.63;;;-2.80;99.90;;;;;;5054870;28;20128;-76
2022/12/13 03:25:23;;;;;;;55.88;25.23;;;-3.00;99.90;;;;;;5054935;28;20390;-76
2022/12/13 03:27:49;;;;;;;55.08;25.10;;;-2.90;99.90;;;;;;5055446;28;20044;-76
2022/12/13 03:30:15;;;;;;;56.72;25.40;;;-3.00;99.90;;;;;;5055135;28;20057;-76
2022/12/13 03:32:40;;;;;;;52.88;23.48;;;-3.00;99.90;;;;;;5054998;28;20057;-76
2022/12/13 03:35:06;;;;;;;49.00;23.60;;;-2.90;99.90;;;;;;5055244;28;20053;-76
2022/12/13 03:37:32;;;;;;;55.78;26.33;;;-2.90;99.90;;;;;;5055203;28;20124;-76
2022/12/13 03:39:58;;;;;;;56.72;26.33;;;-2.90;99.90;;;;;;5054974;28;20140;-76
2022/12/13 03:42:24;;;;;;;75.40;31.95;;;-3.00;99.90;;;;;;5054778;28;20056;-76
2022/12/13 03:44:50;;;;;;;66.60;30.38;;;-3.00;99.90;;;;;;5054676;28;20131;-76
2022/12/13 03:47:16;;;;;;;61.22;24.58;;;-3.00;99.90;;;;;;5054946;28;20081;-76
2022/12/13 03:49:42;;;;;;;51.95;25.35;;;-3.10;99.90;;;;;;5055916;28;20041;-76
2022/12/13 03:52:07;;;;;;;52.55;24.45;;;-3.10;99.90;;;;;;5054886;28;20081;-76
2022/12/13 03:54:33;;;;;;;44.25;21.50;;;-3.00;99.90;;;;;;5054743;28;20079;-76
2022/12/13 03:56:59;;;;;;;55.67;26.45;;;-3.10;99.90;;;;;;5054690;28;20445;-76
2022/12/13 03:59:25;;;;;;;54.80;25.67;;;-3.10;99.90;;;;;;5054473;28;20440;-76
2022/12/13 04:01:51;;;;;;;66.47;30.17;;;-3.00;99.90;;;;;;5054349;28;20439;-76
2022/12/13 04:04:16;;;;;;;64.72;28.38;;;-3.00;99.90;;;;;;5054718;28;20503;-76
2022/12/13 04:06:42;;;;;;;69.40;31.88;;;-3.00;99.90;;;;;;5055388;28;20404;-76
2022/12/13 04:09:07;;;;;;;69.03;32.35;;;-3.10;99.90;;;;;;5055672;28;20069;-76
2022/12/13 04:14:17;;;;;;;58.80;26.48;;;-3.30;99.90;;;;;;5054280;28;20045;-76
2022/12/13 04:16:43;;;;;;;67.30;29.92;;;-3.20;99.90;;;;;;5054203;28;20051;-76
2022/12/13 04:19:08;;;;;;;56.20;25.48;;;-3.20;99.90;;;;;;5053730;28;20029;-76
2022/12/13 04:21:34;;;;;;;58.10;25.20;;;-3.20;99.90;;;;;;5053940;28;20045;-76
2022/12/13 04:23:59;;;;;;;48.83;24.60;;;-3.30;99.90;;;;;;5055010;28;20069;-76
2022/12/13 04:26:25;;;;;;;55.78;24.13;;;-3.20;99.90;;;;;;5053979;28;20053;-76
2022/12/13 04:28:51;;;;;;;49.97;24.13;;;-3.20;99.90;;;;;;5054210;28;20151;-76
2022/12/13 04:31:16;;;;;;;53.53;25.13;;;-3.20;99.90;;;;;;5052994;28;20077;-76
2022/12/13 04:33:42;;;;;;;53.60;24.52;;;-3.20;99.90;;;;;;5054122;28;20063;-76
2022/12/13 04:36:07;;;;;;;53.30;24.33;;;-3.10;99.90;;;;;;5053935;28;20496;-76
2022/12/13 04:38:33;;;;;;;44.92;23.75;;;-3.30;99.90;;;;;;5054144;28;20503;-76
2022/12/13 04:41:07;;;;;;;50.58;23.48;;;-3.20;99.90;;;;;;5053975;28;20048;-76
2022/12/13 04:43:33;;;;;;;49.45;23.30;;;-3.20;99.90;;;;;;5054866;28;20041;-76
2022/12/13 04:45:58;;;;;;;50.95;22.33;;;-3.30;99.90;;;;;;5053895;28;20472;-76
2022/12/13 04:48:24;;;;;;;50.63;21.92;;;-3.10;99.90;;;;;;5053566;28;20041;-76
2022/12/13 04:50:50;;;;;;;45.58;23.00;;;-3.20;99.90;;;;;;5054602;28;20049;-76
2022/12/13 04:53:15;;;;;;;48.78;22.63;;;-3.10;99.90;;;;;;5053410;28;20045;-76
2022/12/13 04:55:41;;;;;;;52.53;25.95;;;-3.10;99.90;;;;;;5054547;28;20045;-76
2022/12/13 04:58:06;;;;;;;47.75;22.92;;;-3.10;99.90;;;;;;5053638;28;20067;-76
2022/12/13 05:00:32;;;;;;;48.38;23.10;;;-3.20;99.90;;;;;;5053388;28;20045;-76
2022/12/13 05:02:58;;;;;;;45.80;21.55;;;-3.10;99.90;;;;;;5053172;28;20041;-76
2022/12/13 05:05:23;;;;;;;48.80;23.55;;;-3.10;99.90;;;;;;5053108;28;20151;-76
2022/12/13 05:07:49;;;;;;;47.80;23.33;;;-3.10;99.90;;;;;;5053103;28;20105;-76
2022/12/13 05:10:15;;;;;;;47.22;22.92;;;-3.10;99.90;;;;;;5053046;28;20044;-76
2022/12/13 05:12:41;;;;;;;50.53;23.48;;;-3.10;99.90;;;;;;5053117;28;20047;-76
2022/12/13 05:15:07;;;;;;;47.20;23.35;;;-3.10;99.90;;;;;;5053090;28;20052;-76
2022/12/13 05:17:33;;;;;;;47.42;23.23;;;-3.20;99.90;;;;;;5053129;28;20053;-76
2022/12/13 05:19:58;;;;;;;46.50;23.45;;;-3.20;99.90;;;;;;5052783;28;20056;-76
2022/12/13 05:22:25;;;;;;;50.33;23.65;;;-3.10;99.90;;;;;;5053995;28;20052;-76
2022/12/13 05:24:51;;;;;;;47.28;22.92;;;-3.10;99.90;;;;;;5053030;28;20046;-76
2022/12/13 05:27:17;;;;;;;47.15;23.25;;;-3.10;99.90;;;;;;5053106;28;20083;-76
2022/12/13 05:29:43;;;;;;;47.92;23.95;;;-3.30;99.90;;;;;;5053153;28;20049;-76
2022/12/13 05:32:08;;;;;;;43.42;22.40;;;-3.10;99.90;;;;;;5052730;28;20045;-76
2022/12/13 05:34:34;;;;;;;49.60;24.50;;;-3.20;99.90;;;;;;5052610;28;20136;-76
2022/12/13 05:37:00;;;;;;;49.20;23.50;;;-3.10;99.90;;;;;;5054098;28;20111;-76
2022/12/13 05:39:26;;;;;;;47.70;23.23;;;-3.20;99.90;;;;;;5052500;28;20041;-76
2022/12/13 05:41:53;;;;;;;46.10;22.50;;;-3.20;99.90;;;;;;5053751;28;20047;-76
2022/12/13 05:44:18;;;;;;;42.05;21.83;;;-3.20;99.90;;;;;;5053890;28;20090;-77
2022/12/13 05:46:44;;;;;;;45.15;21.30;;;-3.30;99.90;;;;;;5052606;28;20045;-76
2022/12/13 05:49:10;;;;;;;45.85;22.77;;;-3.20;99.90;;;;;;5053855;28;20094;-76
2022/12/13 05:51:35;;;;;;;45.28;22.50;;;-3.30;99.90;;;;;;5052342;28;20057;-76
2022/12/13 05:54:01;;;;;;;49.03;22.95;;;-3.20;99.90;;;;;;5052692;28;20469;-76
2022/12/13 05:56:27;;;;;;;45.10;22.88;;;-3.30;99.90;;;;;;5053612;28;20037;-76
2022/12/13 05:58:53;;;;;;;47.88;23.13;;;-3.30;99.90;;;;;;5052229;28;20052;-76
2022/12/13 06:01:19;;;;;;;49.15;22.17;;;-3.40;99.90;;;;;;5052364;28;20059;-76
2022/12/13 06:03:44;;;;;;;47.25;23.88;;;-3.50;99.90;;;;;;5053637;28;20033;-77
2022/12/13 06:06:11;;;;;;;39.50;21.80;;;-3.40;99.90;;;;;;5052212;28;20489;-76
2022/12/13 06:08:38;;;;;;;38.97;21.58;;;-3.50;99.90;;;;;;5053550;28;20049;-76
2022/12/13 06:11:05;;;;;;;42.33;22.90;;;-3.40;99.90;;;;;;5053470;28;20114;-76
2022/12/13 06:13:30;;;;;;;48.42;22.60;;;-3.50;99.90;;;;;;5052232;28;20488;-77
2022/12/13 06:16:01;;;;;;;44.50;21.80;;;-3.40;99.90;;;;;;5052499;28;20048;-76
2022/12/13 06:18:26;;;;;;;46.13;22.20;;;-3.50;99.90;;;;;;5053540;28;20037;-76
2022/12/13 06:21:00;;;;;;;44.20;22.50;;;-3.40;99.90;;;;;;5053433;28;20099;-76
2022/12/13 06:23:27;;;;;;;44.35;23.05;;;-3.30;99.90;;;;;;5053229;28;20127;-76
2022/12/13 06:25:53;;;;;;;44.90;22.13;;;-3.30;99.90;;;;;;5052210;28;20123;-77
2022/12/13 06:28:18;;;;;;;50.13;24.60;;;-3.40;99.90;;;;;;5053450;28;20119;-76
2022/12/13 06:30:44;;;;;;;48.03;24.33;;;-3.30;99.90;;;;;;5053326;28;20037;-76
2022/12/13 06:33:10;;;;;;;54.25;24.65;;;-3.30;99.90;;;;;;5052256;28;20091;-76
2022/12/13 06:35:36;;;;;;;48.22;23.52;;;-3.30;99.90;;;;;;5053384;28;20041;-77
2022/12/13 06:38:02;;;;;;;51.88;24.85;;;-3.20;99.90;;;;;;5053318;28;20037;-77
2022/12/13 06:40:29;;;;;;;45.38;24.40;;;-3.20;99.90;;;;;;5052212;28;20033;-76
2022/12/13 06:42:55;;;;;;;41.67;23.52;;;-3.30;99.90;;;;;;5053241;28;20045;-76
2022/12/13 06:45:21;;;;;;;52.25;26.98;;;-3.30;99.90;;;;;;5053279;28;20044;-77
2022/12/13 06:47:47;;;;;;;55.03;26.85;;;-3.20;99.90;;;;;;5052072;28;20124;-76
2022/12/13 06:50:13;;;;;;;52.90;24.52;;;-3.20;99.90;;;;;;5053151;28;20137;-77
2022/12/13 06:52:38;;;;;;;46.22;25.05;;;-3.20;99.90;;;;;;5053260;28;20053;-77
2022/12/13 06:55:05;;;;;;;54.90;26.63;;;-3.30;99.90;;;;;;5056667;28;20465;-76
2022/12/13 06:57:33;;;;;;;49.08;25.63;;;-3.30;99.90;;;;;;5057060;28;20049;-77
2022/12/13 07:00:02;;;;;;;47.92;25.30;;;-3.30;99.90;;;;;;5056974;28;20041;-77
2022/12/13 07:02:27;;;;;;;52.00;26.90;;;-3.20;99.90;;;;;;5055506;28;20099;-76
2022/12/13 07:04:53;;;;;;;46.47;26.70;;;-3.30;99.90;;;;;;5056708;28;20033;-76
2022/12/13 07:07:19;;;;;;;57.88;28.55;;;-3.20;99.90;;;;;;5055743;28;20052;-77
2022/12/13 07:09:45;;;;;;;53.63;27.58;;;-3.20;99.90;;;;;;5056770;28;20381;-76
2022/12/13 07:12:10;;;;;;;51.03;25.73;;;-3.30;99.90;;;;;;5056324;28;20045;-76
2022/12/13 07:14:36;;;;;;;49.47;26.38;;;-3.10;99.90;;;;;;5055209;28;20049;-77
2022/12/13 07:17:02;;;;;;;53.60;26.73;;;-3.30;99.90;;;;;;5055300;28;20083;-76
2022/12/13 07:19:27;;;;;;;50.95;25.83;;;-3.30;99.90;;;;;;5056599;28;20068;-76
2022/12/13 07:21:53;;;;;;;49.08;25.85;;;-3.20;99.90;;;;;;5056091;28;20091;-76
2022/12/13 07:24:19;;;;;;;44.22;23.30;;;-3.20;99.90;;;;;;5055051;28;20107;-76
2022/12/13 07:26:46;;;;;;;43.38;24.92;;;-3.20;99.90;;;;;;5054159;28;20053;-76
2022/12/13 07:29:11;;;;;;;48.08;26.27;;;-3.20;99.90;;;;;;5055778;28;20421;-77
2022/12/13 07:31:37;;;;;;;47.00;24.42;;;-3.20;99.90;;;;;;5054976;28;20060;-76
2022/12/13 07:34:03;;;;;;;49.45;25.40;;;-3.20;99.90;;;;;;5054730;28;20051;-77
2022/12/13 07:36:28;;;;;;;56.15;27.13;;;-3.30;99.90;;;;;;5055116;28;20045;-77
2022/12/13 07:38:56;;;;;;;98.90;43.08;;;-3.30;99.90;;;;;;5056065;28;20038;-76
2022/12/13 07:41:23;;;;;;;57.38;27.20;;;-3.20;99.90;;;;;;5055855;28;20044;-76
2022/12/13 07:43:48;;;;;;;60.63;28.95;;;-3.40;99.90;;;;;;5055988;28;20068;-76
2022/12/13 07:46:14;;;;;;;53.25;28.27;;;-3.30;99.90;;;;;;5056027;28;20104;-76
2022/12/13 07:48:40;;;;;;;67.97;36.97;;;-3.20;99.90;;;;;;5054828;28;20045;-77
2022/12/13 07:51:12;;;;;;;53.50;28.17;;;-3.30;99.90;;;;;;5055707;28;20048;-76
2022/12/13 07:53:39;;;;;;;57.78;28.73;;;-3.10;99.90;;;;;;5054697;28;20045;-76
2022/12/13 07:56:07;;;;;;;54.20;27.75;;;-3.10;99.90;;;;;;5055827;28;20045;-76
2022/12/13 07:58:32;;;;;;;53.35;29.45;;;-3.10;99.90;;;;;;5054535;28;20408;-76
2022/12/13 08:01:00;;;;;;;87.40;39.53;;;-3.20;99.90;;;;;;5055762;28;20127;-76
2022/12/13 08:03:26;;;;;;;103.95;42.97;;;-3.10;99.90;;;;;;5055670;28;20108;-76
2022/12/13 08:06:18;;;;;;;105.03;41.63;;;-3.20;99.90;;;;;;5055577;28;20072;-76
2022/12/13 08:08:45;;;;;;;84.88;38.42;;;-3.10;99.90;;;;;;5053691;28;20476;-76
2022/12/13 08:11:14;;;;;;;68.93;33.95;;;-3.10;99.90;;;;;;5054230;28;20122;-75
2022/12/13 08:13:40;;;;;;;69.22;37.05;;;-3.10;99.90;;;;;;5054255;28;20072;-76
2022/12/13 08:16:07;;;;;;;65.85;34.20;;;-3.20;99.90;;;;;;5053991;28;20091;-76
2022/12/13 08:18:33;;;;;;;48.83;25.77;;;-3.20;99.90;;;;;;5055527;28;20135;-76
2022/12/13 08:21:01;;;;;;;48.78;26.25;;;-3.20;99.90;;;;;;5055132;28;20040;-77
2022/12/13 08:23:28;;;;;;;44.45;25.55;;;-3.20;99.90;;;;;;5055011;28;20049;-77
2022/12/13 08:25:54;;;;;;;47.72;25.17;;;-3.10;99.90;;;;;;5055239;28;20053;-76
2022/12/13 08:28:20;;;;;;;50.28;24.75;;;-3.10;99.90;;;;;;5049016;28;20052;-76
2022/12/13 08:30:47;;;;;;;47.50;25.75;;;-3.00;99.90;;;;;;5043556;28;20084;-76
2022/12/13 08:33:13;;;;;;;45.88;24.25;;;-3.10;99.90;;;;;;5033725;28;20144;-75
2022/12/13 08:35:39;;;;;;;52.35;25.75;;;-3.00;99.90;;;;;;5034929;28;20060;-75
2022/12/13 08:38:05;;;;;;;45.00;25.65;;;-2.90;99.90;;;;;;5034995;28;20397;-75
2022/12/13 08:40:31;;;;;;;48.58;26.15;;;-2.90;99.90;;;;;;5034668;28;20401;-76
2022/12/13 08:42:57;;;;;;;50.63;25.10;;;-3.00;99.90;;;;;;5034936;28;20049;-75
2022/12/13 08:45:23;;;;;;;53.30;26.05;;;-2.80;99.90;;;;;;5033510;28;20128;-76
2022/12/13 08:47:48;;;;;;;53.35;25.95;;;-3.00;99.90;;;;;;5034438;28;20041;-76
2022/12/13 08:50:15;;;;;;;52.60;27.17;;;-2.80;99.90;;;;;;5033144;28;20098;-76
2022/12/13 08:52:43;;;;;;;52.75;25.50;;;-2.80;99.90;;;;;;5034759;28;20048;-76
2022/12/13 08:55:10;;;;;;;54.28;27.50;;;-2.90;99.90;;;;;;5034515;28;20184;-75
2022/12/13 08:57:37;;;;;;;52.50;28.23;;;-2.70;99.90;;;;;;5034219;28;20398;-76
2022/12/13 09:00:07;;;;;;;50.05;27.67;;;-2.70;99.90;;;;;;5034288;28;20038;-76
2022/12/13 09:02:32;;;;;;;48.33;25.73;;;-2.50;99.90;;;;;;5034365;28;20049;-76
2022/12/13 09:04:58;;;;;;;58.35;28.15;;;-2.60;99.90;;;;;;5032916;28;20447;-75
2022/12/13 09:07:24;;;;;;;59.83;28.23;;;-2.50;99.90;;;;;;5034252;28;20060;-76
2022/12/13 09:09:49;;;;;;;55.55;26.80;;;-2.50;99.90;;;;;;5034288;28;20038;-76
2022/12/13 09:12:15;;;;;;;53.97;26.92;;;-2.50;99.90;;;;;;5034254;28;20470;-77
2022/12/13 09:14:41;;;;;;;50.60;26.73;;;-2.40;99.90;;;;;;5034096;28;20139;-76
2022/12/13 09:17:07;;;;;;;64.50;30.63;;;-2.30;99.90;;;;;;5033697;28;20038;-77
2022/12/13 09:19:32;;;;;;;64.53;31.27;;;-2.30;99.90;;;;;;5038013;28;20083;-77
2022/12/13 09:21:58;;;;;;;57.80;29.60;;;-2.10;99.90;;;;;;5052867;28;20071;-76
2022/12/13 09:24:24;;;;;;;55.40;28.58;;;-2.10;99.90;;;;;;5052537;28;20057;-76
2022/12/13 09:26:50;;;;;;;57.70;29.00;;;-2.00;99.90;;;;;;5053967;28;20055;-76
2022/12/13 09:29:16;;;;;;;55.10;28.85;;;-2.00;99.90;;;;;;5053729;28;20041;-78
2022/12/13 09:31:42;;;;;;;59.42;30.00;;;-2.00;99.90;;;;;;5038853;28;20049;-77
2022/12/13 09:34:09;;;;;;;58.85;28.38;;;-1.90;99.90;;;;;;5033625;28;20489;-77
2022/12/13 09:36:35;;;;;;;54.50;29.75;;;-1.70;99.90;;;;;;5033862;28;20045;-77
2022/12/13 09:39:01;;;;;;;65.50;28.70;;;-1.80;99.90;;;;;;5034110;28;20075;-77
2022/12/13 09:41:34;;;;;;;62.65;31.92;;;-1.70;99.90;;;;;;5032302;28;20077;-76
2022/12/13 09:44:10;;;;;;;;;;;-1.60;99.90;;;;;;5033880;28;20396;-77
2022/12/13 09:46:42;;;;;;;50.88;27.73;;;-1.40;99.90;;;;;;5033848;28;19928;-76
2022/12/13 09:49:24;;;;;;;52.35;27.70;;;-1.40;99.90;;;;;;5049959;28;20040;-78
2022/12/13 09:51:59;;;;;;;59.72;29.52;;;-1.50;99.90;;;;;;5053247;28;20086;-78
2022/12/13 09:54:25;;;;;;;57.50;29.23;;;-1.30;99.90;;;;;;5051651;28;20037;-78
2022/12/13 09:56:53;;;;;;;53.28;27.88;;;-1.30;99.90;;;;;;5050847;28;20167;-78
2022/12/13 09:59:27;;;;;;;54.85;28.40;;;-1.20;99.90;;;;;;5052247;28;20044;-77
2022/12/13 10:01:54;;;;;;;52.25;28.35;;;-1.20;99.90;;;;;;5052033;28;20045;-78
2022/12/13 10:04:20;;;;;;;57.30;30.33;;;-1.00;99.90;;;;;;5053199;28;20087;-77
2022/12/13 10:06:52;;;;;;;63.20;28.95;;;-1.00;99.90;;;;;;5052127;28;20456;-78
2022/12/13 10:09:18;;;;;;;52.50;28.98;;;-1.00;99.90;;;;;;5052105;28;20512;-78
2022/12/13 10:11:49;;;;;;;69.50;30.35;;;-0.90;99.90;;;;;;5051797;28;20076;-78
2022/12/13 10:14:42;;;;;;;54.08;29.15;;;-0.80;99.90;;;;;;5051843;28;20041;-77
2022/12/13 10:17:13;;;;;;;56.65;28.58;;;-0.80;99.90;;;;;;5052688;28;20139;-78
2022/12/13 10:19:41;;;;;;;57.17;31.48;;;-0.70;99.90;;;;;;5052999;28;20041;-78
2022/12/13 10:22:12;;;;;;;56.38;28.85;;;-0.70;99.90;;;;;;5051545;28;20059;-77
2022/12/13 10:24:55;;;;;;;59.20;29.45;;;-0.70;99.90;;;;;;5052311;28;20121;-78
2022/12/13 10:27:41;;;;;;;51.65;28.33;;;-0.40;99.90;;;;;;5050903;28;20139;-78
2022/12/13 10:30:21;;;;;;;53.17;28.50;;;-0.40;99.90;;;;;;5053966;28;20045;-77
2022/12/13 10:32:58;;;;;;;56.05;29.27;;;-0.30;99.90;;;;;;5054446;28;20488;-78
2022/12/13 10:35:35;;;;;;;58.28;31.35;;;-0.20;99.90;;;;;;5054302;28;20052;-78
2022/12/13 10:38:09;;;;;;;59.90;29.60;;;-0.40;99.90;;;;;;5054584;28;20057;-77
2022/12/13 10:40:40;;;;;;;57.55;30.50;;;-0.30;99.90;;;;;;5054520;28;20424;-78
2022/12/13 10:43:20;;;;;;;68.40;28.45;;;-0.20;99.90;;;;;;5055705;28;20049;-78
2022/12/13 10:45:55;;;;;;;54.20;27.55;;;0.10;99.90;;;;;;5055695;28;20116;-78
2022/12/13 10:48:25;;;;;;;55.90;28.60;;;0.00;99.90;;;;;;5035779;28;20064;-77
2022/12/13 10:51:10;;;;;;;51.67;28.50;;;0.20;99.90;;;;;;5034332;28;20073;-77
2022/12/13 10:53:54;;;;;;;56.67;29.42;;;0.20;99.90;;;;;;5033382;28;20074;-77
2022/12/13 10:56:21;;;;;;;56.90;29.67;;;0.40;99.90;;;;;;5034224;28;20135;-77
2022/12/13 10:58:50;;;;;;;56.55;28.02;;;0.30;99.90;;;;;;5033101;28;20083;-77
2022/12/13 11:01:25;;;;;;;50.58;25.67;;;0.30;99.90;;;;;;5034274;28;20405;-77
2022/12/13 11:04:18;;;;;;;47.17;26.17;;;0.30;99.90;;;;;;5033092;28;20087;-79
2022/12/13 11:06:46;;;;;;;48.58;27.05;;;0.40;99.90;;;;;;5034417;28;20053;-81
2022/12/13 11:09:25;;;;;;;46.13;24.30;;;0.40;99.90;;;;;;5034135;28;20053;-78
2022/12/13 11:11:52;;;;;;;52.22;28.02;;;0.50;99.90;;;;;;5034921;28;20389;-78
2022/12/13 11:14:20;;;;;;;47.30;26.33;;;0.60;99.90;;;;;;5034019;28;20053;-78
2022/12/13 11:16:53;;;;;;;48.78;27.17;;;0.80;99.90;;;;;;5033831;28;20504;-77
2022/12/13 11:19:22;;;;;;;50.08;27.48;;;0.80;99.90;;;;;;5054234;28;20067;-79
2022/12/13 11:21:51;;;;;;;45.10;25.17;;;0.80;99.90;;;;;;5016062;28;1104754;-79
2022/12/13 11:24:22;;;;;;;44.88;24.83;;;0.90;99.90;;;;;;5055178;28;20053;-78
2022/12/13 11:26:54;;;;;;;44.90;24.23;;;1.00;99.90;;;;;;5054543;28;20048;-79
2022/12/13 11:29:39;;;;;;;50.60;25.40;;;0.90;99.90;;;;;;5056065;28;20045;-79
2022/12/13 11:32:41;;;;;;;43.72;24.67;;;0.90;99.90;;;;;;5054576;28;20065;-79
2022/12/13 11:35:31;;;;;;;48.65;26.10;;;1.10;99.90;;;;;;5055676;28;20049;-77
2022/12/13 11:38:15;;;;;;;50.53;25.63;;;1.10;99.90;;;;;;5055832;28;20198;-79
2022/12/13 11:40:45;;;;;;;50.67;26.83;;;1.00;99.90;;;;;;5055134;28;20548;-79
2022/12/13 11:43:22;;;;;;;49.72;28.02;;;1.20;99.90;;;;;;5054405;28;20037;-78
2022/12/13 11:45:55;;;;;;;45.50;26.02;;;1.20;99.90;;;;;;5055442;28;20044;-78
2022/12/13 11:48:23;;;;;;;;;;;1.20;99.90;;;;;;5054825;28;20056;-79
2022/12/13 11:50:51;;;;;;;43.45;24.45;;;1.20;99.90;;;;;;5054079;28;20063;-78
2022/12/13 11:53:34;;;;;;;48.42;28.05;;;1.30;99.90;;;;;;5055284;28;20048;-78
2022/12/13 11:56:05;;;;;;;44.90;26.05;;;1.30;99.90;;;;;;5055411;28;20116;-77
2022/12/13 11:58:50;;;;;;;57.72;28.13;;;1.30;99.90;;;;;;5055514;28;20397;-79
2022/12/13 12:01:36;;;;;;;52.55;27.02;;;1.30;99.90;;;;;;5055042;28;20166;-78
2022/12/13 12:04:41;;;;;;;44.78;25.33;;;1.20;99.90;;;;;;5043567;28;20136;-78
2022/12/13 12:07:26;;;;;;;46.83;25.55;;;1.30;99.90;;;;;;5054494;28;20061;-78
2022/12/13 12:10:33;;;;;;;51.72;26.35;;;1.30;99.90;;;;;;5053839;28;20052;-78
2022/12/13 12:13:15;;;;;;;51.92;29.08;;;1.40;99.90;;;;;;5043709;28;20053;-78
2022/12/13 12:15:49;;;;;;;56.15;31.13;;;1.40;99.90;;;;;;5053926;28;20076;-78
2022/12/13 12:18:15;;;;;;;44.30;26.17;;;1.40;99.90;;;;;;5054883;28;20045;-77
2022/12/13 12:21:04;;;;;;;40.65;23.48;;;1.40;99.90;;;;;;5053652;28;20077;-78
2022/12/13 12:23:47;;;;;;;46.90;26.67;;;1.40;99.90;;;;;;5053505;28;20048;-79
2022/12/13 12:26:20;;;;;;;39.92;23.10;;;1.50;99.90;;;;;;5053430;28;20048;-78
2022/12/13 12:29:05;;;;;;;39.58;22.85;;;1.40;99.90;;;;;;5054979;28;20036;-78
2022/12/13 12:31:48;;;;;;;42.63;24.27;;;1.50;99.90;;;;;;5054929;28;20044;-78
2022/12/13 12:34:38;;;;;;;40.80;23.38;;;1.50;99.90;;;;;;5055050;28;20049;-78
2022/12/13 12:37:03;;;;;;;39.97;23.10;;;1.50;99.90;;;;;;5054195;28;20480;-78
2022/12/13 12:39:43;;;;;;;41.03;23.95;;;1.60;99.90;;;;;;5053596;28;20045;-77
2022/12/13 12:42:35;;;;;;;36.13;19.95;;;1.50;99.90;;;;;;5053253;28;20374;-77
2022/12/13 12:45:20;;;;;;;35.50;21.38;;;1.60;99.90;;;;;;5053188;28;20053;-77
2022/12/13 12:48:19;;;;;;;37.22;22.33;;;1.60;99.90;;;;;;5054417;28;20056;-78